createdAt,value
2022-12-24T00:00:31.806Z,5.03
2022-12-24T00:05:39.053Z,5.72
2022-12-24T00:10:42.575Z,4.80
2022-12-24T00:15:45.989Z,5.38
2022-12-24T00:20:50.947Z,5.60
2022-12-24T00:30:57.525Z,5.60
2022-12-24T00:36:02.457Z,6.10
2022-12-24T00:46:09.709Z,6.47
2022-12-24T00:51:14.671Z,6.85
2022-12-24T00:56:18.575Z,7.20
2022-12-24T01:01:22.750Z,7.32
2022-12-24T01:06:27.744Z,7.35
2022-12-24T01:16:34.395Z,7.43
2022-12-24T01:21:39.244Z,7.97
2022-12-24T01:26:42.565Z,7.47
2022-12-24T01:31:46.011Z,8.30
2022-12-24T01:36:50.897Z,9.10
2022-12-24T01:42:11.707Z,9.48
2022-12-24T01:47:19.884Z,9.30
2022-12-24T01:52:28.225Z,9.90
2022-12-24T01:57:36.092Z,10.95
2022-12-24T02:02:41.660Z,11.55
2022-12-24T02:07:47.358Z,11.98
2022-12-24T02:12:52.537Z,13.10
2022-12-24T02:18:02.448Z,12.77
2022-12-24T02:23:28.059Z,12.20
2022-12-24T02:28:47.926Z,13.60
2022-12-24T02:34:01.874Z,13.48
2022-12-24T02:39:10.395Z,13.20
2022-12-24T02:44:13.970Z,12.30
2022-12-24T02:49:18.698Z,13.50
2022-12-24T02:54:22.077Z,14.30
2022-12-24T02:59:43.876Z,13.93
2022-12-24T03:04:56.825Z,14.52
2022-12-24T03:10:13.515Z,15.23
2022-12-24T03:15:20.185Z,15.52
2022-12-24T03:20:32.669Z,14.77
2022-12-24T03:25:40.024Z,14.40
2022-12-24T03:30:44.802Z,15.07
2022-12-24T03:35:49.523Z,13.60
2022-12-24T03:40:52.995Z,14.20
2022-12-24T03:45:56.546Z,13.73
2022-12-24T03:51:01.286Z,13.73
2022-12-24T03:56:04.960Z,13.95
2022-12-24T04:01:08.603Z,13.60
2022-12-24T04:06:16.279Z,14.32
2022-12-24T04:11:19.680Z,14.65
2022-12-24T04:16:23.293Z,13.30
2022-12-24T04:21:28.167Z,13.50
2022-12-24T04:26:31.737Z,13.77
2022-12-24T04:31:35.277Z,13.25
2022-12-24T04:36:40.385Z,14.18
2022-12-24T04:41:43.725Z,13.80
2022-12-24T04:46:47.077Z,14.48
2022-12-24T04:51:51.787Z,14.25
2022-12-24T04:56:55.393Z,13.70
2022-12-24T05:01:58.962Z,14.93
2022-12-24T05:07:03.806Z,13.52
2022-12-24T05:12:07.541Z,13.88
2022-12-24T05:17:11.188Z,13.77
2022-12-24T05:22:33.585Z,14.18
2022-12-24T05:27:37.455Z,14.23
2022-12-24T05:32:40.787Z,15.65
2022-12-24T05:37:45.542Z,15.90
2022-12-24T05:42:48.890Z,15.27
2022-12-24T05:47:52.238Z,15.65
2022-12-24T05:52:56.957Z,15.90
2022-12-24T05:58:00.263Z,13.45
2022-12-24T06:03:03.839Z,13.02
2022-12-24T06:08:08.897Z,14.05
2022-12-24T06:18:15.318Z,12.27
2022-12-24T06:23:20.591Z,12.60
2022-12-24T06:28:24.012Z,12.48
2022-12-24T06:33:27.333Z,12.40
2022-12-24T06:38:32.781Z,12.95
2022-12-24T06:43:36.904Z,13.27
2022-12-24T06:48:40.187Z,13.47
2022-12-24T06:53:45.158Z,11.80
2022-12-24T06:58:48.808Z,13.02
2022-12-24T07:03:52.378Z,12.30
2022-12-24T07:08:57.228Z,12.77
2022-12-24T07:14:00.759Z,12.85
2022-12-24T07:19:04.784Z,12.40
2022-12-24T07:24:09.739Z,12.80
2022-12-24T07:34:16.454Z,13.48
2022-12-24T07:39:21.209Z,11.90
2022-12-24T07:44:25.277Z,10.95
2022-12-24T07:49:28.844Z,11.07
2022-12-24T07:54:33.801Z,11.25
2022-12-24T08:04:40.696Z,8.68
2022-12-24T08:09:46.298Z,9.07
2022-12-24T08:14:49.615Z,9.65
2022-12-24T08:19:52.917Z,9.38
2022-12-24T08:24:57.981Z,8.77
2022-12-24T08:30:01.362Z,7.97
2022-12-24T08:35:05.148Z,8.35
2022-12-24T08:40:11.473Z,8.20
2022-12-24T08:45:15.009Z,8.30
2022-12-24T08:50:18.490Z,7.57
2022-12-24T08:55:23.349Z,7.85
2022-12-24T09:05:30.364Z,6.47
2022-12-24T09:10:35.149Z,6.60
2022-12-24T09:15:38.524Z,7.47
2022-12-24T09:20:46.719Z,7.03
2022-12-24T09:25:52.134Z,7.18
2022-12-24T09:30:59.785Z,7.45
2022-12-24T09:36:03.849Z,6.63
2022-12-24T09:41:16.093Z,6.73
2022-12-24T09:46:24.304Z,6.88
2022-12-24T09:51:33.517Z,7.05
2022-12-24T09:56:41.708Z,6.53
2022-12-24T10:01:45.331Z,6.32
2022-12-24T10:07:00.014Z,6.40
2022-12-24T10:12:10.950Z,6.13
2022-12-24T10:17:31.263Z,5.55
2022-12-24T10:22:42.484Z,6.25
2022-12-24T10:27:47.927Z,5.05
2022-12-24T10:32:54.004Z,5.70
2022-12-24T10:37:58.576Z,5.63
2022-12-24T10:43:03.447Z,5.03
2022-12-24T10:48:13.554Z,5.15
2022-12-24T10:53:21.624Z,4.57
2022-12-24T10:58:26.532Z,4.90
2022-12-24T11:08:37.992Z,5.25
2022-12-24T11:13:46.216Z,6.18
2022-12-24T11:18:52.627Z,4.78
2022-12-24T11:23:58.757Z,5.43
2022-12-24T11:29:15.145Z,5.70
2022-12-24T11:34:27.266Z,5.60
2022-12-24T11:39:30.693Z,5.70
2022-12-24T11:44:35.969Z,5.20
2022-12-24T11:49:39.455Z,5.65
2022-12-24T11:54:53.054Z,5.40
2022-12-24T11:59:57.849Z,5.57
2022-12-24T12:05:10.288Z,5.57
2022-12-24T12:10:25.780Z,5.40
2022-12-24T12:15:35.679Z,4.75
2022-12-24T12:20:43.116Z,4.55
2022-12-24T12:25:55.461Z,4.55
2022-12-24T12:31:07.035Z,4.35
2022-12-24T12:36:17.235Z,3.67
2022-12-24T12:41:28.638Z,4.18
2022-12-24T12:46:45.243Z,3.85
2022-12-24T12:51:58.191Z,4.10
2022-12-24T12:57:09.038Z,4.13
2022-12-24T13:02:30.074Z,4.40
2022-12-24T13:07:53.128Z,4.85
2022-12-24T13:13:20.615Z,5.20
2022-12-24T13:18:54.481Z,5.03
2022-12-24T13:24:08.143Z,5.28
2022-12-24T13:29:39.621Z,5.47
2022-12-24T13:34:50.108Z,5.53
2022-12-24T13:40:17.102Z,5.63
2022-12-24T13:45:49.700Z,6.10
2022-12-24T13:50:56.738Z,5.95
2022-12-24T13:56:07.753Z,6.10
2022-12-24T14:01:14.794Z,5.30
2022-12-24T14:06:26.485Z,5.35
2022-12-24T14:11:34.603Z,5.72
2022-12-24T14:16:49.997Z,5.80
2022-12-24T14:22:02.647Z,5.40
2022-12-24T14:27:18.616Z,5.68
2022-12-24T14:32:22.015Z,5.35
2022-12-24T14:37:32.984Z,5.57
2022-12-24T14:42:46.576Z,5.30
2022-12-24T14:47:57.921Z,5.70
2022-12-24T14:53:19.067Z,5.35
2022-12-24T14:58:26.450Z,5.50
2022-12-24T15:03:32.447Z,4.45
2022-12-24T15:08:41.793Z,5.22
2022-12-24T15:13:49.359Z,5.25
2022-12-24T15:18:56.908Z,6.13
2022-12-24T15:24:03.171Z,5.57
2022-12-24T15:34:28.138Z,5.68
2022-12-24T15:39:33.423Z,5.22
2022-12-24T15:44:39.084Z,5.18
2022-12-24T15:49:47.602Z,5.07
2022-12-24T15:54:57.675Z,5.15
2022-12-24T16:00:02.706Z,5.22
2022-12-24T16:05:30.507Z,4.85
2022-12-24T16:10:36.015Z,5.20
2022-12-24T16:15:49.726Z,4.40
2022-12-24T16:20:55.544Z,3.63
2022-12-24T16:26:01.043Z,3.88
2022-12-24T16:31:05.093Z,3.60
2022-12-24T16:36:09.117Z,3.63
2022-12-24T16:41:14.117Z,3.77
2022-12-24T16:46:17.777Z,4.07
2022-12-24T16:51:21.214Z,3.55
2022-12-24T16:56:26.155Z,3.38
2022-12-24T17:06:32.876Z,3.72
2022-12-24T17:11:37.784Z,3.58
2022-12-24T17:21:44.343Z,3.22
2022-12-24T17:26:49.301Z,3.15
2022-12-24T17:31:53.329Z,2.90
2022-12-24T17:36:56.815Z,2.57
2022-12-24T17:42:01.857Z,3.22
2022-12-24T17:52:08.809Z,2.97
2022-12-24T17:57:13.746Z,3.20
2022-12-24T18:02:17.300Z,2.88
2022-12-24T18:07:20.723Z,2.50
2022-12-24T18:12:25.836Z,3.30
2022-12-24T18:17:29.343Z,3.42
2022-12-24T18:22:32.748Z,3.05
2022-12-24T18:27:38.153Z,3.05
2022-12-24T18:32:41.698Z,3.00
2022-12-24T18:37:45.037Z,2.78
2022-12-24T18:42:49.828Z,2.47
2022-12-24T18:47:53.146Z,2.60
2022-12-24T18:52:56.638Z,2.50
2022-12-24T18:58:01.377Z,2.35
2022-12-24T19:03:05.065Z,2.50
2022-12-24T19:08:37.624Z,2.45
2022-12-24T19:13:33.452Z,2.42
2022-12-24T19:23:40.062Z,2.50
2022-12-24T19:28:45.255Z,2.42
2022-12-24T19:33:50.488Z,2.55
2022-12-24T19:38:54.313Z,2.83
2022-12-24T19:44:01.208Z,2.57
2022-12-24T19:49:06.946Z,2.75
2022-12-24T19:54:18.690Z,2.60
2022-12-24T19:59:24.013Z,3.20
2022-12-24T20:04:27.512Z,2.75
2022-12-24T20:09:32.919Z,3.03
2022-12-24T20:14:37.833Z,3.42
2022-12-24T20:19:42.537Z,3.33
2022-12-24T20:24:46.203Z,3.17
2022-12-24T20:29:51.000Z,3.05
2022-12-24T20:34:54.525Z,3.30
2022-12-24T20:39:58.006Z,3.17
2022-12-24T20:45:04.494Z,3.30
2022-12-24T20:50:09.026Z,3.53
2022-12-24T20:55:12.445Z,3.90
2022-12-24T21:00:18.605Z,3.42
2022-12-24T21:05:22.120Z,3.50
2022-12-24T21:10:30.706Z,3.40
2022-12-24T21:15:40.593Z,3.35
2022-12-24T21:20:44.089Z,2.90
2022-12-24T21:25:57.870Z,2.88
2022-12-24T21:31:02.887Z,3.10
2022-12-24T21:36:06.589Z,3.33
2022-12-24T21:41:12.459Z,3.10
2022-12-24T21:46:20.209Z,2.60
2022-12-24T21:51:24.422Z,2.53
2022-12-24T21:56:27.887Z,2.67
2022-12-24T22:01:32.867Z,2.40
2022-12-24T22:06:53.721Z,2.20
2022-12-24T22:11:57.201Z,2.45
2022-12-24T22:17:02.192Z,2.70
2022-12-24T22:22:05.710Z,2.28
2022-12-24T22:27:09.125Z,2.10
2022-12-24T22:32:13.989Z,2.22
2022-12-24T22:42:20.989Z,2.40
2022-12-24T22:47:25.790Z,2.10
2022-12-24T22:52:29.614Z,1.90
2022-12-24T22:57:33.160Z,1.48
2022-12-24T23:02:38.186Z,1.55
2022-12-24T23:07:41.851Z,1.73
2022-12-24T23:13:02.833Z,1.50
2022-12-24T23:18:08.758Z,1.45
2022-12-24T23:23:12.708Z,1.40
2022-12-24T23:28:16.043Z,1.53
2022-12-24T23:33:21.049Z,1.48
2022-12-24T23:43:27.910Z,1.58
2022-12-24T23:48:32.971Z,1.50
2022-12-24T23:53:36.524Z,1.58
2022-12-24T23:58:40.668Z,1.60
